sensor_id;sensor_type;location;lat;lon;timestamp;pressure;altitude;pressure_sealevel;temperature;humidity
59987;BME280;46181;51.498;5.392;2023-09-19T00:00:01;100684.6;;;20.42;59.97949
59987;BME280;46181;51.498;5.392;2023-09-19T00:04:31;100683.1;;;20.39;59.86035
59987;BME280;46181;51.498;5.392;2023-09-19T00:09:01;100691.2;;;20.35;59.83203
59987;BME280;46181;51.498;5.392;2023-09-19T00:13:31;100696.3;;;20.32;59.62109
59987;BME280;46181;51.498;5.392;2023-09-19T00:18:01;100707.1;;;20.27;59.66016
59987;BME280;46181;51.498;5.392;2023-09-19T00:22:31;100703.2;;;20.26;59.54297
59987;BME280;46181;51.498;5.392;2023-09-19T00:27:01;100706;;;20.22;59.60742
59987;BME280;46181;51.498;5.392;2023-09-19T00:31:31;100718.1;;;20.17;59.52051
59987;BME280;46181;51.498;5.392;2023-09-19T00:36:02;100721.2;;;20.12;59.3877
59987;BME280;46181;51.498;5.392;2023-09-19T00:40:31;100725.9;;;20.11;59.21289
59987;BME280;46181;51.498;5.392;2023-09-19T00:45:01;100732.3;;;20.09;59.16602
59987;BME280;46181;51.498;5.392;2023-09-19T00:49:31;100739.4;;;20.06;59.06934
59987;BME280;46181;51.498;5.392;2023-09-19T00:54:01;100737.7;;;20.05;59.04395
59987;BME280;46181;51.498;5.392;2023-09-19T00:58:31;100750.1;;;20.03;58.96094
59987;BME280;46181;51.498;5.392;2023-09-19T01:03:01;100756.5;;;19.98;58.82715
59987;BME280;46181;51.498;5.392;2023-09-19T01:07:32;100756.9;;;19.95;58.80078
59987;BME280;46181;51.498;5.392;2023-09-19T01:12:06;100765.5;;;19.9;58.80566
59987;BME280;46181;51.498;5.392;2023-09-19T01:16:47;100765.9;;;19.85;58.74219
59987;BME280;46181;51.498;5.392;2023-09-19T01:21:08;100768.3;;;19.8;58.59766
59987;BME280;46181;51.498;5.392;2023-09-19T01:25:56;100774.1;;;19.75;58.59082
59987;BME280;46181;51.498;5.392;2023-09-19T01:30:13;100774.5;;;19.77;58.29395
59987;BME280;46181;51.498;5.392;2023-09-19T01:34:31;100778.4;;;19.74;58.19824
59987;BME280;46181;51.498;5.392;2023-09-19T01:39:02;100780.8;;;19.73;58.13867
59987;BME280;46181;51.498;5.392;2023-09-19T01:43:35;100787.7;;;19.7;58.14648
59987;BME280;46181;51.498;5.392;2023-09-19T01:48:04;100786.6;;;19.7;57.88379
59987;BME280;46181;51.498;5.392;2023-09-19T01:52:36;100788.4;;;19.67;57.86621
59987;BME280;46181;51.498;5.392;2023-09-19T01:57:06;100793.7;;;19.65;57.77246
59987;BME280;46181;51.498;5.392;2023-09-19T02:01:33;100785.6;;;19.66;57.5332
59987;BME280;46181;51.498;5.392;2023-09-19T02:06:02;100787.5;;;19.65;57.33496
59987;BME280;46181;51.498;5.392;2023-09-19T02:10:31;100781;;;19.63;57.25293
59987;BME280;46181;51.498;5.392;2023-09-19T02:15:01;100785.2;;;19.6;57.07617
59987;BME280;46181;51.498;5.392;2023-09-19T02:19:31;100789.7;;;19.59;57.04102
59987;BME280;46181;51.498;5.392;2023-09-19T02:24:01;100784.8;;;19.54;56.94141
59987;BME280;46181;51.498;5.392;2023-09-19T02:28:31;100789.3;;;19.52;56.7666
59987;BME280;46181;51.498;5.392;2023-09-19T02:33:01;100788.8;;;19.48;56.68164
59987;BME280;46181;51.498;5.392;2023-09-19T02:37:31;100794.4;;;19.44;56.5498
59987;BME280;46181;51.498;5.392;2023-09-19T02:42:01;100793.7;;;19.41;56.39648
59987;BME280;46181;51.498;5.392;2023-09-19T02:46:31;100795.1;;;19.39;56.29004
59987;BME280;46181;51.498;5.392;2023-09-19T02:51:02;100798.1;;;19.33;56.30762
59987;BME280;46181;51.498;5.392;2023-09-19T02:55:31;100806.1;;;19.3;56.0957
59987;BME280;46181;51.498;5.392;2023-09-19T03:00:01;100799.1;;;19.24;55.88281
59987;BME280;46181;51.498;5.392;2023-09-19T03:04:31;100809.2;;;19.21;55.85449
59987;BME280;46181;51.498;5.392;2023-09-19T03:09:01;100807.6;;;19.18;55.79395
59987;BME280;46181;51.498;5.392;2023-09-19T03:13:31;100804;;;19.15;55.65137
59987;BME280;46181;51.498;5.392;2023-09-19T03:18:01;100807.2;;;19.14;55.61621
59987;BME280;46181;51.498;5.392;2023-09-19T03:22:31;100801.8;;;19.11;55.56641
59987;BME280;46181;51.498;5.392;2023-09-19T03:27:01;100808.6;;;19.11;55.55566
59987;BME280;46181;51.498;5.392;2023-09-19T03:31:31;100807.3;;;19.09;55.55273
59987;BME280;46181;51.498;5.392;2023-09-19T03:36:04;100800.2;;;19.05;55.57129
59987;BME280;46181;51.498;5.392;2023-09-19T03:40:31;100802.6;;;19.06;55.60742
59987;BME280;46181;51.498;5.392;2023-09-19T03:45:01;100802.1;;;19.07;55.52832
59987;BME280;46181;51.498;5.392;2023-09-19T03:49:31;100799;;;19.07;55.5625
59987;BME280;46181;51.498;5.392;2023-09-19T03:54:01;100791.6;;;19.06;55.6416
59987;BME280;46181;51.498;5.392;2023-09-19T03:58:31;100793.6;;;19.05;55.60547
59987;BME280;46181;51.498;5.392;2023-09-19T04:03:02;100790.5;;;19.04;55.65039
59987;BME280;46181;51.498;5.392;2023-09-19T04:07:31;100797.8;;;19.05;55.77832
59987;BME280;46181;51.498;5.392;2023-09-19T04:12:01;100786.2;;;19.04;55.8916
59987;BME280;46181;51.498;5.392;2023-09-19T04:16:31;100787.9;;;19.03;55.98242
59987;BME280;46181;51.498;5.392;2023-09-19T04:21:01;100795.1;;;19.03;56.04004
59987;BME280;46181;51.498;5.392;2023-09-19T04:25:31;100803.6;;;19.03;56.09766
59987;BME280;46181;51.498;5.392;2023-09-19T04:30:01;100822.7;;;19.07;56.18262
59987;BME280;46181;51.498;5.392;2023-09-19T04:34:31;100821.9;;;19.08;56.19531
59987;BME280;46181;51.498;5.392;2023-09-19T04:39:01;100836.1;;;19.09;56.30078
59987;BME280;46181;51.498;5.392;2023-09-19T04:43:31;100849.4;;;19.14;56.61523
59987;BME280;46181;51.498;5.392;2023-09-19T04:48:02;100849.9;;;19.19;56.55176
59987;BME280;46181;51.498;5.392;2023-09-19T04:52:33;100858;;;19.22;56.53418
59987;BME280;46181;51.498;5.392;2023-09-19T04:57:01;100868.8;;;19.24;56.3877
59987;BME280;46181;51.498;5.392;2023-09-19T05:01:31;100863.1;;;19.26;56.25098
59987;BME280;46181;51.498;5.392;2023-09-19T05:06:01;100872.7;;;19.25;56.43457
59987;BME280;46181;51.498;5.392;2023-09-19T05:10:31;100874.2;;;19.24;56.39941
59987;BME280;46181;51.498;5.392;2023-09-19T05:15:01;100874;;;19.23;56.4082
59987;BME280;46181;51.498;5.392;2023-09-19T05:19:31;100876;;;19.22;56.46582
59987;BME280;46181;51.498;5.392;2023-09-19T05:24:01;100876.6;;;19.22;56.54688
59987;BME280;46181;51.498;5.392;2023-09-19T05:28:31;100884.8;;;19.23;56.63867
59987;BME280;46181;51.498;5.392;2023-09-19T05:33:01;100886.4;;;19.25;56.74512
59987;BME280;46181;51.498;5.392;2023-09-19T05:37:31;100884.6;;;19.24;56.83496
59987;BME280;46181;51.498;5.392;2023-09-19T05:42:01;100888.8;;;19.23;56.78809
59987;BME280;46181;51.498;5.392;2023-09-19T05:46:31;100893.8;;;19.22;56.90234
59987;BME280;46181;51.498;5.392;2023-09-19T05:51:01;100887.8;;;19.24;56.91504
59987;BME280;46181;51.498;5.392;2023-09-19T05:55:31;100877.5;;;19.24;57.00879
59987;BME280;46181;51.498;5.392;2023-09-19T06:00:01;100865.2;;;19.25;57.00977
59987;BME280;46181;51.498;5.392;2023-09-19T06:04:31;100873.9;;;19.25;57.13574
59987;BME280;46181;51.498;5.392;2023-09-19T06:09:01;100876.5;;;19.3;57.08398
59987;BME280;46181;51.498;5.392;2023-09-19T06:13:31;100881.1;;;19.34;57.28516
59987;BME280;46181;51.498;5.392;2023-09-19T06:18:03;100879.8;;;19.36;57.40234
59987;BME280;46181;51.498;5.392;2023-09-19T06:22:31;100893.9;;;19.42;57.37598
59987;BME280;46181;51.498;5.392;2023-09-19T06:27:01;100891.5;;;19.44;57.49316
59987;BME280;46181;51.498;5.392;2023-09-19T06:31:31;100900.5;;;19.49;57.4873
59987;BME280;46181;51.498;5.392;2023-09-19T06:36:01;100902;;;19.48;57.54395
59987;BME280;46181;51.498;5.392;2023-09-19T06:40:33;100914.4;;;19.53;57.6543
59987;BME280;46181;51.498;5.392;2023-09-19T06:45:01;100914.5;;;19.57;57.59082
59987;BME280;46181;51.498;5.392;2023-09-19T06:49:31;100915.3;;;19.6;57.62891
59987;BME280;46181;51.498;5.392;2023-09-19T06:54:01;100913.6;;;19.63;57.54102
59987;BME280;46181;51.498;5.392;2023-09-19T06:58:31;100923.1;;;19.69;57.66309
59987;BME280;46181;51.498;5.392;2023-09-19T07:03:08;100918.6;;;19.75;57.69434
59987;BME280;46181;51.498;5.392;2023-09-19T07:07:31;100923.1;;;19.87;57.61816
59987;BME280;46181;51.498;5.392;2023-09-19T07:12:01;100919.4;;;19.94;57.4668
59987;BME280;46181;51.498;5.392;2023-09-19T07:16:32;100925.4;;;19.99;57.62207
59987;BME280;46181;51.498;5.392;2023-09-19T07:21:05;100925.7;;;20.09;57.60059
59987;BME280;46181;51.498;5.392;2023-09-19T07:25:31;100930.1;;;20.23;57.28418
59987;BME280;46181;51.498;5.392;2023-09-19T07:30:01;100922.1;;;20.26;57.34473
59987;BME280;46181;51.498;5.392;2023-09-19T07:34:31;100923.9;;;20.31;57.22559
59987;BME280;46181;51.498;5.392;2023-09-19T07:39:02;100919.1;;;20.39;57.19043
59987;BME280;46181;51.498;5.392;2023-09-19T07:43:31;100927.2;;;20.52;57.06836
59987;BME280;46181;51.498;5.392;2023-09-19T07:48:01;100928.9;;;20.62;56.80371
59987;BME280;46181;51.498;5.392;2023-09-19T07:52:31;100917.7;;;20.75;56.70508
59987;BME280;46181;51.498;5.392;2023-09-19T07:57:01;100931.2;;;20.86;56.55762
59987;BME280;46181;51.498;5.392;2023-09-19T08:01:31;100930;;;20.98;56.41113
59987;BME280;46181;51.498;5.392;2023-09-19T08:06:01;100929.1;;;21.08;56.1582
59987;BME280;46181;51.498;5.392;2023-09-19T08:10:31;100937.4;;;21.22;56.24707
59987;BME280;46181;51.498;5.392;2023-09-19T08:15:01;100936.8;;;21.42;55.86719
59987;BME280;46181;51.498;5.392;2023-09-19T08:19:31;100934.4;;;21.5;55.72754
59987;BME280;46181;51.498;5.392;2023-09-19T08:24:01;100937.2;;;21.68;55.75
59987;BME280;46181;51.498;5.392;2023-09-19T08:28:31;100934.3;;;21.84;55.56152
59987;BME280;46181;51.498;5.392;2023-09-19T08:33:05;100929.5;;;21.95;55.03125
59987;BME280;46181;51.498;5.392;2023-09-19T08:37:31;100939;;;22.02;54.7627
59987;BME280;46181;51.498;5.392;2023-09-19T08:42:05;100930.5;;;21.98;54.53711
59987;BME280;46181;51.498;5.392;2023-09-19T08:46:33;100938.1;;;22.04;54.3252
59987;BME280;46181;51.498;5.392;2023-09-19T08:51:06;100928.4;;;22.08;54.27148
59987;BME280;46181;51.498;5.392;2023-09-19T08:55:32;100930.9;;;22.11;54.0791
59987;BME280;46181;51.498;5.392;2023-09-19T09:00:02;100937.2;;;22.18;54.04004
59987;BME280;46181;51.498;5.392;2023-09-19T09:04:32;100938.1;;;22.32;53.96484
59987;BME280;46181;51.498;5.392;2023-09-19T09:09:02;100929.2;;;22.37;53.56641
59987;BME280;46181;51.498;5.392;2023-09-19T09:13:32;100933;;;22.5;53.72168
59987;BME280;46181;51.498;5.392;2023-09-19T09:18:02;100935.1;;;22.7;52.96777
59987;BME280;46181;51.498;5.392;2023-09-19T09:22:31;100936.6;;;22.84;52.9043
59987;BME280;46181;51.498;5.392;2023-09-19T09:27:02;100942;;;23;52.38965
59987;BME280;46181;51.498;5.392;2023-09-19T09:31:37;100944;;;23.09;52.35449
59987;BME280;46181;51.498;5.392;2023-09-19T09:36:03;100934.1;;;23.19;51.67969
59987;BME280;46181;51.498;5.392;2023-09-19T09:40:31;100916.3;;;23.29;51.14648
59987;BME280;46181;51.498;5.392;2023-09-19T09:45:21;100919.6;;;23.22;51.49902
59987;BME280;46181;51.498;5.392;2023-09-19T09:49:36;100901.7;;;23.45;50.33887
59987;BME280;46181;51.498;5.392;2023-09-19T09:58:31;100907.6;;;23.6;50.42676
59987;BME280;46181;51.498;5.392;2023-09-19T10:03:02;100912.3;;;23.79;49.69238
59987;BME280;46181;51.498;5.392;2023-09-19T10:07:39;100916.7;;;23.82;49.50879
59987;BME280;46181;51.498;5.392;2023-09-19T10:12:12;100918.3;;;23.93;49.41504
59987;BME280;46181;51.498;5.392;2023-09-19T10:16:32;100903.4;;;24.05;48.97461
59987;BME280;46181;51.498;5.392;2023-09-19T10:21:01;100908.6;;;24.08;49.15234
59987;BME280;46181;51.498;5.392;2023-09-19T10:25:32;100900.6;;;24.21;48.57324
59987;BME280;46181;51.498;5.392;2023-09-19T10:30:03;100904.8;;;24.35;48.22852
59987;BME280;46181;51.498;5.392;2023-09-19T10:34:32;100905.4;;;24.38;48.16113
59987;BME280;46181;51.498;5.392;2023-09-19T10:39:04;100908.4;;;24.46;47.5166
59987;BME280;46181;51.498;5.392;2023-09-19T10:43:34;100900.6;;;24.42;47.10449
59987;BME280;46181;51.498;5.392;2023-09-19T10:48:02;100908.8;;;24.46;47.00391
59987;BME280;46181;51.498;5.392;2023-09-19T10:52:32;100912.7;;;24.54;46.66309
59987;BME280;46181;51.498;5.392;2023-09-19T10:57:02;100903.8;;;24.54;46.91992
59987;BME280;46181;51.498;5.392;2023-09-19T11:01:50;100893.5;;;24.47;46.74902
59987;BME280;46181;51.498;5.392;2023-09-19T11:06:24;100885;;;24.57;46.99219
59987;BME280;46181;51.498;5.392;2023-09-19T11:10:49;100872.9;;;24.72;45.95801
59987;BME280;46181;51.498;5.392;2023-09-19T11:15:02;100857.6;;;24.73;45.67969
59987;BME280;46181;51.498;5.392;2023-09-19T11:24:32;100865.9;;;24.62;45.73828
59987;BME280;46181;51.498;5.392;2023-09-19T11:28:44;100857.2;;;24.66;44.9375
59987;BME280;46181;51.498;5.392;2023-09-19T11:33:19;100845.3;;;24.67;44.92578
59987;BME280;46181;51.498;5.392;2023-09-19T11:42:02;100842.9;;;24.91;44.76465
59987;BME280;46181;51.498;5.392;2023-09-19T11:46:32;100821.9;;;25;43.9082
59987;BME280;46181;51.498;5.392;2023-09-19T11:51:03;100815.7;;;25.05;44.00684
59987;BME280;46181;51.498;5.392;2023-09-19T11:55:34;100812.7;;;25.22;43.89551
59987;BME280;46181;51.498;5.392;2023-09-19T12:00:02;100808.9;;;25.3;43.41113
59987;BME280;46181;51.498;5.392;2023-09-19T12:04:42;100805.2;;;25.22;43.14746
59987;BME280;46181;51.498;5.392;2023-09-19T12:09:02;100805;;;25.32;43.09863
59987;BME280;46181;51.498;5.392;2023-09-19T12:13:31;100804.4;;;25.4;42.83691
59987;BME280;46181;51.498;5.392;2023-09-19T12:18:02;100802.9;;;25.43;42.89844
59987;BME280;46181;51.498;5.392;2023-09-19T12:22:42;100823.1;;;25.38;42.92773
59987;BME280;46181;51.498;5.392;2023-09-19T12:27:05;100824.6;;;25.41;42.89648
59987;BME280;46181;51.498;5.392;2023-09-19T12:31:32;100820.3;;;25.43;42.97949
59987;BME280;46181;51.498;5.392;2023-09-19T12:36:01;100828.3;;;25.39;43.02246
59987;BME280;46181;51.498;5.392;2023-09-19T12:40:32;100832.4;;;25.31;43.0498
59987;BME280;46181;51.498;5.392;2023-09-19T12:45:02;100819.7;;;25.32;43.26172
59987;BME280;46181;51.498;5.392;2023-09-19T12:49:31;100822.3;;;25.36;43.38184
59987;BME280;46181;51.498;5.392;2023-09-19T12:54:06;100805.6;;;25.34;43.3457
59987;BME280;46181;51.498;5.392;2023-09-19T12:58:31;100817;;;25.41;43.43457
59987;BME280;46181;51.498;5.392;2023-09-19T13:03:13;100819.3;;;25.37;43.35938
59987;BME280;46181;51.498;5.392;2023-09-19T13:07:46;100813.5;;;25.44;42.89844
59987;BME280;46181;51.498;5.392;2023-09-19T13:12:02;100812.6;;;25.62;42.96289
59987;BME280;46181;51.498;5.392;2023-09-19T13:16:32;100821.3;;;25.72;42.99609
59987;BME280;46181;51.498;5.392;2023-09-19T13:21:13;100831.9;;;25.62;43.10254
59987;BME280;46181;51.498;5.392;2023-09-19T13:25:32;100812.4;;;25.61;42.87988
59987;BME280;46181;51.498;5.392;2023-09-19T13:30:02;100820.8;;;25.5;43.04492
59987;BME280;46181;51.498;5.392;2023-09-19T13:34:31;100827.9;;;25.45;43.23926
59987;BME280;46181;51.498;5.392;2023-09-19T13:39:02;100816;;;25.45;43.35547
59987;BME280;46181;51.498;5.392;2023-09-19T13:43:32;100828.2;;;25.47;43.27637
59987;BME280;46181;51.498;5.392;2023-09-19T13:48:02;100827.6;;;25.47;43.39355
59987;BME280;46181;51.498;5.392;2023-09-19T13:52:33;100835;;;25.46;43.54395
59987;BME280;46181;51.498;5.392;2023-09-19T13:57:02;100826.8;;;25.46;43.1582
59987;BME280;46181;51.498;5.392;2023-09-19T14:01:32;100813.5;;;25.39;43.36133
59987;BME280;46181;51.498;5.392;2023-09-19T14:06:02;100814.1;;;25.35;43.54492
59987;BME280;46181;51.498;5.392;2023-09-19T14:10:32;100801.2;;;25.33;43.53125
59987;BME280;46181;51.498;5.392;2023-09-19T14:15:02;100803.5;;;25.39;43.8877
59987;BME280;46181;51.498;5.392;2023-09-19T14:19:32;100801.8;;;25.46;43.60254
59987;BME280;46181;51.498;5.392;2023-09-19T14:24:02;100804.4;;;25.53;43.69141
59987;BME280;46181;51.498;5.392;2023-09-19T14:28:32;100810.7;;;25.64;43.52637
59987;BME280;46181;51.498;5.392;2023-09-19T14:33:02;100815.6;;;25.72;43.34668
59987;BME280;46181;51.498;5.392;2023-09-19T14:37:32;100806.3;;;25.79;43.37695
59987;BME280;46181;51.498;5.392;2023-09-19T14:42:02;100802.8;;;25.85;43.53418
59987;BME280;46181;51.498;5.392;2023-09-19T14:46:32;100801.3;;;25.9;43.55176
59987;BME280;46181;51.498;5.392;2023-09-19T14:51:05;100784.2;;;25.95;43.54395
59987;BME280;46181;51.498;5.392;2023-09-19T14:55:32;100787.6;;;25.96;43.43945
59987;BME280;46181;51.498;5.392;2023-09-19T15:00:02;100784.8;;;25.89;43.45703
59987;BME280;46181;51.498;5.392;2023-09-19T15:04:32;100782;;;25.81;43.40137
59987;BME280;46181;51.498;5.392;2023-09-19T15:09:02;100782.3;;;25.73;43.66406
59987;BME280;46181;51.498;5.392;2023-09-19T15:13:32;100791.5;;;25.72;43.56934
59987;BME280;46181;51.498;5.392;2023-09-19T15:18:02;100792.3;;;25.61;43.6875
59987;BME280;46181;51.498;5.392;2023-09-19T15:22:32;100789.5;;;25.61;44.03711
59987;BME280;46181;51.498;5.392;2023-09-19T15:27:02;100777;;;25.61;43.79297
59987;BME280;46181;51.498;5.392;2023-09-19T15:31:32;100792.5;;;25.53;43.86621
59987;BME280;46181;51.498;5.392;2023-09-19T15:36:09;100784.8;;;25.38;43.98145
59987;BME280;46181;51.498;5.392;2023-09-19T15:40:32;100793.5;;;25.36;44.10742
59987;BME280;46181;51.498;5.392;2023-09-19T15:45:02;100789.2;;;25.31;44.27734
59987;BME280;46181;51.498;5.392;2023-09-19T15:49:32;100783.2;;;25.18;44.34668
59987;BME280;46181;51.498;5.392;2023-09-19T15:54:06;100784.8;;;25.06;44.65039
59987;BME280;46181;51.498;5.392;2023-09-19T15:58:32;100787.1;;;24.93;44.73145
59987;BME280;46181;51.498;5.392;2023-09-19T16:03:02;100789.6;;;24.9;45.37012
59987;BME280;46181;51.498;5.392;2023-09-19T16:07:32;100789.7;;;24.88;45.53027
59987;BME280;46181;51.498;5.392;2023-09-19T16:12:02;100792.5;;;24.87;45.57715
59987;BME280;46181;51.498;5.392;2023-09-19T16:16:32;100795;;;24.8;45.59277
59987;BME280;46181;51.498;5.392;2023-09-19T16:21:05;100803.4;;;24.76;45.76367
59987;BME280;46181;51.498;5.392;2023-09-19T16:25:32;100798.5;;;24.67;45.74414
59987;BME280;46181;51.498;5.392;2023-09-19T16:30:02;100811;;;24.6;45.93457
59987;BME280;46181;51.498;5.392;2023-09-19T16:34:32;100817.1;;;24.58;46.10645
59987;BME280;46181;51.498;5.392;2023-09-19T16:39:02;100813.7;;;24.56;46.03516
59987;BME280;46181;51.498;5.392;2023-09-19T16:43:32;100813.1;;;24.5;46.07617
59987;BME280;46181;51.498;5.392;2023-09-19T16:48:02;100802.9;;;24.48;46.25977
59987;BME280;46181;51.498;5.392;2023-09-19T16:52:33;100798.7;;;24.44;46.24414
59987;BME280;46181;51.498;5.392;2023-09-19T16:57:02;100793.3;;;24.42;46.33594
59987;BME280;46181;51.498;5.392;2023-09-19T17:01:32;100796.4;;;24.38;46.29785
59987;BME280;46181;51.498;5.392;2023-09-19T17:06:05;100794;;;24.32;46.38379
59987;BME280;46181;51.498;5.392;2023-09-19T17:10:33;100802.5;;;24.32;46.2793
59987;BME280;46181;51.498;5.392;2023-09-19T17:15:02;100810.4;;;24.28;46.36816
59987;BME280;46181;51.498;5.392;2023-09-19T17:19:32;100810.8;;;24.27;46.53027
59987;BME280;46181;51.498;5.392;2023-09-19T17:24:02;100806.6;;;24.25;46.57422
59987;BME280;46181;51.498;5.392;2023-09-19T17:28:32;100803.8;;;24.22;46.52539
59987;BME280;46181;51.498;5.392;2023-09-19T17:33:02;100804.9;;;24.18;46.61426
59987;BME280;46181;51.498;5.392;2023-09-19T17:37:32;100806.2;;;24.19;46.55664
59987;BME280;46181;51.498;5.392;2023-09-19T17:42:02;100800.3;;;24.15;46.62305
59987;BME280;46181;51.498;5.392;2023-09-19T17:46:32;100806.6;;;24.11;46.63086
59987;BME280;46181;51.498;5.392;2023-09-19T17:51:11;100812.4;;;24.01;47.01563
59987;BME280;46181;51.498;5.392;2023-09-19T17:55:32;100817.6;;;23.93;47.51855
59987;BME280;46181;51.498;5.392;2023-09-19T18:00:02;100817.8;;;23.78;47.91113
59987;BME280;46181;51.498;5.392;2023-09-19T18:04:32;100821.7;;;23.66;48.4209
59987;BME280;46181;51.498;5.392;2023-09-19T18:09:02;100816.6;;;23.63;48.70996
59987;BME280;46181;51.498;5.392;2023-09-19T18:13:32;100825.1;;;23.63;48.65039
59987;BME280;46181;51.498;5.392;2023-09-19T18:18:02;100828.1;;;23.61;48.64844
59987;BME280;46181;51.498;5.392;2023-09-19T18:22:32;100814.4;;;23.59;48.68164
59987;BME280;46181;51.498;5.392;2023-09-19T18:27:02;100826.7;;;23.57;49.10938
59987;BME280;46181;51.498;5.392;2023-09-19T18:31:32;100817.4;;;23.5;49.20605
59987;BME280;46181;51.498;5.392;2023-09-19T18:36:04;100815.9;;;23.5;49.10254
59987;BME280;46181;51.498;5.392;2023-09-19T18:40:32;100811.4;;;23.49;49.30957
59987;BME280;46181;51.498;5.392;2023-09-19T18:45:02;100818.9;;;23.5;49.35742
59987;BME280;46181;51.498;5.392;2023-09-19T18:49:32;100828.4;;;23.5;49.39258
59987;BME280;46181;51.498;5.392;2023-09-19T18:54:02;100835.4;;;23.48;49.51855
59987;BME280;46181;51.498;5.392;2023-09-19T18:58:32;100831;;;23.45;49.62988
59987;BME280;46181;51.498;5.392;2023-09-19T19:03:02;100833.6;;;23.4;49.92676
59987;BME280;46181;51.498;5.392;2023-09-19T19:07:32;100835.1;;;23.4;50.04297
59987;BME280;46181;51.498;5.392;2023-09-19T19:12:02;100830.3;;;23.39;49.97266
59987;BME280;46181;51.498;5.392;2023-09-19T19:16:32;100821;;;23.41;50.04395
59987;BME280;46181;51.498;5.392;2023-09-19T19:21:09;100811.6;;;23.34;50.04883
59987;BME280;46181;51.498;5.392;2023-09-19T19:25:32;100810;;;23.37;49.86719
59987;BME280;46181;51.498;5.392;2023-09-19T19:30:02;100801.3;;;23.38;49.85547
59987;BME280;46181;51.498;5.392;2023-09-19T19:34:32;100805.9;;;23.36;49.8418
59987;BME280;46181;51.498;5.392;2023-09-19T19:39:02;100803.2;;;23.34;49.76953
59987;BME280;46181;51.498;5.392;2023-09-19T19:43:32;100805.5;;;23.34;49.90918
59987;BME280;46181;51.498;5.392;2023-09-19T19:48:02;100802.1;;;23.37;49.80762
59987;BME280;46181;51.498;5.392;2023-09-19T19:52:32;100802.1;;;23.36;49.81836
59987;BME280;46181;51.498;5.392;2023-09-19T19:57:02;100799.4;;;23.34;49.61914
59987;BME280;46181;51.498;5.392;2023-09-19T20:01:32;100792.9;;;23.33;49.60645
59987;BME280;46181;51.498;5.392;2023-09-19T20:06:03;100798.7;;;23.31;49.54492
59987;BME280;46181;51.498;5.392;2023-09-19T20:10:32;100803;;;23.31;49.53418
59987;BME280;46181;51.498;5.392;2023-09-19T20:15:02;100805.4;;;23.32;49.58105
59987;BME280;46181;51.498;5.392;2023-09-19T20:19:32;100808.4;;;23.33;49.37402
59987;BME280;46181;51.498;5.392;2023-09-19T20:24:02;100817.6;;;23.33;49.32715
59987;BME280;46181;51.498;5.392;2023-09-19T20:28:32;100819.6;;;23.34;49.16504
59987;BME280;46181;51.498;5.392;2023-09-19T20:33:02;100814.1;;;23.36;49.0752
59987;BME280;46181;51.498;5.392;2023-09-19T20:37:32;100820.2;;;23.35;48.96875
59987;BME280;46181;51.498;5.392;2023-09-19T20:42:02;100818.9;;;23.37;49.00684
59987;BME280;46181;51.498;5.392;2023-09-19T20:46:32;100822.2;;;23.38;48.84473
59987;BME280;46181;51.498;5.392;2023-09-19T20:51:07;100817.2;;;23.38;48.79785
59987;BME280;46181;51.498;5.392;2023-09-19T20:55:32;100812.6;;;23.39;48.70605
59987;BME280;46181;51.498;5.392;2023-09-19T21:00:02;100809;;;23.38;48.66992
59987;BME280;46181;51.498;5.392;2023-09-19T21:04:32;100804.8;;;23.38;48.79785
59987;BME280;46181;51.498;5.392;2023-09-19T21:09:02;100798.7;;;23.39;48.83398
59987;BME280;46181;51.498;5.392;2023-09-19T21:13:32;100795.2;;;23.4;48.83594
59987;BME280;46181;51.498;5.392;2023-09-19T21:18:02;100800.6;;;23.42;48.89551
59987;BME280;46181;51.498;5.392;2023-09-19T21:22:32;100801.1;;;23.43;48.89551
59987;BME280;46181;51.498;5.392;2023-09-19T21:27:02;100800.9;;;23.44;49.04785
59987;BME280;46181;51.498;5.392;2023-09-19T21:31:32;100799.3;;;23.44;49.1416
59987;BME280;46181;51.498;5.392;2023-09-19T21:36:02;100801.2;;;23.46;49.02734
59987;BME280;46181;51.498;5.392;2023-09-19T21:40:32;100788.2;;;23.46;49.05078
59987;BME280;46181;51.498;5.392;2023-09-19T21:45:02;100787.9;;;23.47;49.0625
59987;BME280;46181;51.498;5.392;2023-09-19T21:49:32;100792.3;;;23.45;49.00293
59987;BME280;46181;51.498;5.392;2023-09-19T21:54:02;100784.9;;;23.45;48.97949
59987;BME280;46181;51.498;5.392;2023-09-19T21:58:32;100792.5;;;23.44;49.08398
59987;BME280;46181;51.498;5.392;2023-09-19T22:03:02;100795.6;;;23.45;49.36328
59987;BME280;46181;51.498;5.392;2023-09-19T22:07:32;100793.5;;;23.44;49.32813
59987;BME280;46181;51.498;5.392;2023-09-19T22:12:02;100793.3;;;23.44;49.30371
59987;BME280;46181;51.498;5.392;2023-09-19T22:16:32;100784.9;;;23.42;49.37109
59987;BME280;46181;51.498;5.392;2023-09-19T22:21:02;100780.9;;;23.41;49.38184
59987;BME280;46181;51.498;5.392;2023-09-19T22:25:32;100777.5;;;23.38;49.41406
59987;BME280;46181;51.498;5.392;2023-09-19T22:30:02;100784.1;;;23.38;49.53027
59987;BME280;46181;51.498;5.392;2023-09-19T22:34:32;100785.4;;;23.38;49.4834
59987;BME280;46181;51.498;5.392;2023-09-19T22:39:02;100782.9;;;23.35;49.62012
59987;BME280;46181;51.498;5.392;2023-09-19T22:43:32;100777.8;;;23.32;49.94238
59987;BME280;46181;51.498;5.392;2023-09-19T22:48:02;100772.2;;;23.32;49.89551
59987;BME280;46181;51.498;5.392;2023-09-19T22:52:32;100775;;;23.3;50.04395
59987;BME280;46181;51.498;5.392;2023-09-19T22:57:02;100771.7;;;23.29;50.17188
59987;BME280;46181;51.498;5.392;2023-09-19T23:01:32;100766.6;;;23.29;50.125
59987;BME280;46181;51.498;5.392;2023-09-19T23:06:02;100765.2;;;23.27;49.98242
59987;BME280;46181;51.498;5.392;2023-09-19T23:10:32;100773.2;;;23.26;50.21387
59987;BME280;46181;51.498;5.392;2023-09-19T23:15:02;100769.2;;;23.24;50.1875